»·PEaware :: ASA821 KPDX-KLAS

ASA821 :: KPDX-KLAS

FLIGHT INFORMATION

Flight Status: Arrived
Operator:
Alaska Airlines
More flights by this operator :: More flights under this callsign
Pilot: Andre N. (13929)
Aircraft: BOEING 737-800
(B738)
More flights by this aircraft type
Origin: KPDX Portland Intl
United States
Destination: KLAS McCarran Intl
United States
More flights between these airports :: More routes between these airports
Route: CASCD2 PAWLI YERIN LIDAT BTY SUNST4
File this flight plan on PilotEdge
Remarks:
Altitude:
(Current/Filed)
37,000ft
Speed:
(Current/Filed)
450kts
Departed: 04-Apr-18 08:43 AM
Arrived: 04-Apr-18 10:30 AM
Distance/Time
Traveled:
663nm/1:47
Distance/Time
To Go:
Arrived

Flight Plot

Page will automatically refresh every two minutes.

Flight plan parsing failed; only flown route is shown


Map Options




Map Legend


Flown Route
Filed Route
Departure Airport
Arrival Airport
Navaid (VOR, NDB)
Fix

Horizontal Profiles

Position Reports

Time Latitude Longitude Heading Altitude Ground
Speed
04-Apr-18 08:18 45.588611 -122.596937 5 36ft 0kts
04-Apr-18 08:19 45.588611 -122.596937 5 36ft 0kts
04-Apr-18 08:20 45.588611 -122.596937 5 36ft 0kts
04-Apr-18 08:21 45.588611 -122.596937 5 36ft 0kts
04-Apr-18 08:22 45.588611 -122.596937 5 36ft 0kts
04-Apr-18 08:23 45.588611 -122.596937 5 36ft 0kts
04-Apr-18 08:24 45.588611 -122.596937 5 36ft 0kts
04-Apr-18 08:25 45.588611 -122.596937 5 36ft 0kts
04-Apr-18 08:26 45.588611 -122.596937 5 36ft 0kts
04-Apr-18 08:27 45.588611 -122.596937 5 36ft 0kts
04-Apr-18 08:28 45.588611 -122.596937 5 36ft 0kts
04-Apr-18 08:29 45.588611 -122.596937 5 36ft 0kts
04-Apr-18 08:30 45.588611 -122.596937 5 36ft 0kts
04-Apr-18 08:31 45.588586 -122.596941 5 37ft 2kts
04-Apr-18 08:32 45.587990 -122.597034 5 37ft 2kts
04-Apr-18 08:33 45.587613 -122.596760 300 37ft 2kts
04-Apr-18 08:34 45.587534 -122.596561 298 36ft 0kts
04-Apr-18 08:35 45.587534 -122.596561 298 36ft 0kts
04-Apr-18 08:36 45.587596 -122.596721 298 36ft 4kts
04-Apr-18 08:37 45.588092 -122.599469 262 36ft 12kts
04-Apr-18 08:38 45.590673 -122.605656 315 37ft 22kts
04-Apr-18 08:39 45.593920 -122.613468 299 37ft 24kts
04-Apr-18 08:40 45.596230 -122.620265 238 36ft 4kts
04-Apr-18 08:41 45.596035 -122.620551 215 37ft 5kts
04-Apr-18 08:42 45.588451 -122.604352 117 47ft 159kts
04-Apr-18 08:43 45.575071 -122.539985 97 2804ft 182kts
04-Apr-18 08:44 45.567144 -122.466158 100 5718ft 195kts
04-Apr-18 08:45 45.551728 -122.379744 103 7753ft 258kts
04-Apr-18 08:46 45.517824 -122.299537 145 11132ft 259kts
04-Apr-18 08:47 45.449462 -122.257700 172 13403ft 296kts
04-Apr-18 08:48 45.368859 -122.238529 172 16093ft 312kts
04-Apr-18 08:49 45.280197 -122.213848 173 18116ft 344kts
04-Apr-18 08:50 45.184672 -122.186607 173 20211ft 366kts
04-Apr-18 08:51 45.083886 -122.157708 173 22268ft 382kts
04-Apr-18 08:52 44.983294 -122.100896 159 24133ft 403kts
04-Apr-18 08:53 44.883088 -122.033612 159 25805ft 416kts
04-Apr-18 08:54 44.782301 -121.966289 160 27251ft 428kts
04-Apr-18 08:55 44.675235 -121.895136 160 28581ft 440kts
04-Apr-18 08:56 44.563862 -121.821400 160 30047ft 445kts
04-Apr-18 08:57 44.452655 -121.748055 161 31603ft 443kts
04-Apr-18 08:58 44.342631 -121.675846 161 32931ft 443kts
04-Apr-18 08:59 44.231877 -121.603483 161 34120ft 442kts
04-Apr-18 09:00 44.121304 -121.531574 161 35136ft 443kts
04-Apr-18 09:01 44.010093 -121.459569 162 36067ft 444kts
04-Apr-18 09:02 43.899945 -121.388566 162 36863ft 446kts
04-Apr-18 09:03 43.792997 -121.319949 162 37110ft 459kts
04-Apr-18 09:04 43.685216 -121.251006 162 37107ft 477kts
04-Apr-18 09:05 43.562582 -121.172882 162 37107ft 497kts
04-Apr-18 09:06 43.437144 -121.093210 161 37101ft 499kts
04-Apr-18 09:07 43.311585 -121.013851 161 37102ft 499kts
04-Apr-18 09:08 43.186051 -120.934900 161 37104ft 499kts
04-Apr-18 09:09 43.057874 -120.869545 167 37106ft 494kts
04-Apr-18 09:10 42.928821 -120.809019 168 37162ft 494kts
04-Apr-18 09:11 42.803803 -120.750769 168 37158ft 494kts
04-Apr-18 09:12 42.674863 -120.690686 167 37159ft 494kts
04-Apr-18 09:13 42.545830 -120.630537 167 37160ft 494kts
04-Apr-18 09:14 42.416322 -120.570143 167 37162ft 494kts
04-Apr-18 09:15 42.287072 -120.509847 167 37163ft 494kts
04-Apr-18 09:16 42.157903 -120.449563 167 37165ft 494kts
04-Apr-18 09:17 42.051180 -120.399750 167 37167ft 495kts
04-Apr-18 09:18 41.902377 -120.330222 168 37150ft 494kts
04-Apr-18 09:19 41.773280 -120.269859 168 37151ft 494kts
04-Apr-18 09:20 41.644448 -120.209645 167 37152ft 494kts
04-Apr-18 09:21 41.515284 -120.149261 167 37154ft 494kts
04-Apr-18 09:22 41.407896 -120.099042 167 37155ft 494kts
04-Apr-18 09:23 41.279055 -120.038774 167 37156ft 494kts
04-Apr-18 09:24 41.149757 -119.978276 167 37158ft 495kts
04-Apr-18 09:25 41.021039 -119.918027 167 37159ft 495kts
04-Apr-18 09:26 40.892761 -119.857969 167 37160ft 495kts
04-Apr-18 09:27 40.780273 -119.805289 167 37165ft 495kts
04-Apr-18 09:28 40.656513 -119.747317 167 37158ft 495kts
04-Apr-18 09:29 40.527157 -119.686714 167 37160ft 496kts
04-Apr-18 09:30 40.397729 -119.626054 167 37162ft 496kts
04-Apr-18 09:31 40.268594 -119.565520 167 37162ft 496kts
04-Apr-18 09:32 40.139257 -119.504894 166 37221ft 498kts
04-Apr-18 09:33 40.009419 -119.444014 166 37220ft 498kts
04-Apr-18 09:34 39.881068 -119.383806 166 37181ft 499kts
04-Apr-18 09:35 39.756604 -119.325361 166 37176ft 497kts
04-Apr-18 09:36 39.627341 -119.264633 166 37179ft 498kts
04-Apr-18 09:37 39.498188 -119.203992 166 37154ft 498kts
04-Apr-18 09:38 39.368657 -119.143189 166 37155ft 498kts
04-Apr-18 09:39 39.239698 -119.082659 166 37156ft 498kts
04-Apr-18 09:40 39.110320 -119.021935 166 37158ft 498kts
04-Apr-18 09:41 38.982685 -118.960312 158 37140ft 504kts
04-Apr-18 09:42 38.876397 -118.850754 142 37157ft 515kts
04-Apr-18 09:43 38.779651 -118.743042 143 37158ft 518kts
04-Apr-18 09:44 38.670824 -118.624070 143 37164ft 516kts
04-Apr-18 09:45 38.561918 -118.506212 143 37162ft 515kts
04-Apr-18 09:46 38.453501 -118.388980 143 37164ft 515kts
04-Apr-18 09:47 38.345776 -118.272282 144 37211ft 515kts
04-Apr-18 09:48 38.237189 -118.154572 143 37180ft 515kts
04-Apr-18 09:49 38.129026 -118.037257 143 37185ft 515kts
04-Apr-18 09:50 38.020819 -117.919789 143 37187ft 515kts
04-Apr-18 09:51 37.912750 -117.802362 143 37189ft 515kts
04-Apr-18 09:52 37.805357 -117.685563 143 37185ft 515kts
04-Apr-18 09:53 37.697589 -117.568258 143 37187ft 515kts
04-Apr-18 09:54 37.589607 -117.450632 142 37189ft 515kts
04-Apr-18 09:55 37.482371 -117.333810 141 37185ft 513kts
04-Apr-18 09:56 37.374211 -117.226413 149 37191ft 511kts
04-Apr-18 09:57 37.256038 -117.128679 149 35703ft 502kts
04-Apr-18 09:58 37.143746 -117.034717 148 32752ft 489kts
04-Apr-18 09:59 37.031042 -116.940017 149 29825ft 496kts
04-Apr-18 10:00 36.916655 -116.843938 149 26871ft 496kts
04-Apr-18 10:01 36.813548 -116.756992 149 24077ft 416kts
04-Apr-18 10:02 36.733936 -116.653210 133 24105ft 419kts
04-Apr-18 10:03 36.657359 -116.544162 133 24105ft 419kts
04-Apr-18 10:04 36.580534 -116.435133 133 23379ft 418kts
04-Apr-18 10:05 36.506335 -116.330099 134 21812ft 403kts
04-Apr-18 10:06 36.433637 -116.227419 134 20305ft 394kts
04-Apr-18 10:07 36.362318 -116.127022 134 18838ft 384kts
04-Apr-18 10:08 36.293423 -116.030412 134 17439ft 370kts
04-Apr-18 10:09 36.226953 -115.937287 134 15991ft 343kts
04-Apr-18 10:10 36.178788 -115.839164 113 14934ft 335kts
04-Apr-18 10:11 36.145450 -115.733075 113 13968ft 328kts
04-Apr-18 10:12 36.112576 -115.630157 111 13043ft 312kts
04-Apr-18 10:13 36.081541 -115.533521 111 12096ft 299kts
04-Apr-18 10:14 36.050925 -115.438709 111 11299ft 296kts
04-Apr-18 10:15 36.025623 -115.344015 94 10656ft 287kts
04-Apr-18 10:16 36.020278 -115.252653 94 9237ft 265kts
04-Apr-18 10:17 36.014776 -115.166763 94 8626ft 243kts
04-Apr-18 10:18 36.009523 -115.085022 94 7984ft 235kts
04-Apr-18 10:19 36.004900 -115.003883 93 7990ft 237kts
04-Apr-18 10:20 36.000872 -114.922542 93 7790ft 236kts
04-Apr-18 10:21 35.996947 -114.842468 93 6801ft 231kts
04-Apr-18 10:22 36.021514 -114.778498 14 5823ft 222kts
04-Apr-18 10:23 36.071898 -114.804724 285 4878ft 206kts
04-Apr-18 10:24 36.073610 -114.875465 269 4891ft 206kts
04-Apr-18 10:25 36.073678 -114.946106 270 4887ft 203kts
04-Apr-18 10:26 36.073867 -115.011691 269 4268ft 186kts
04-Apr-18 10:27 36.073682 -115.070922 269 3190ft 155kts
04-Apr-18 10:28 36.073611 -115.122949 270 2304ft 150kts
04-Apr-18 10:29 36.074428 -115.149894 297 2189ft 0kts
04-Apr-18 10:30 36.074703 -115.150491 304 2189ft 9kts
04-Apr-18 10:31 36.078031 -115.151999 84 2188ft 13kts
04-Apr-18 10:32 36.077655 -115.145307 94 2188ft 23kts
04-Apr-18 10:33 36.080267 -115.142434 0 2188ft 20kts

Navigation Log

Ident Type
Flight plan parsing failed, navigation log unavailable